Time,TemperatureF,DewpointF,PressureIn,WindDirection,WindDirectionDegrees,WindSpeedMPH,WindSpeedGustMPH,Humidity,HourlyPrecipIn,Conditions,Clouds,dailyrainin,SoftwareType,DateUTC
2013-03-10 00:01:00,32.0,30.0,-100.00,ESE,105,4.0,7.0,95,-99.99,,,-99.99,,2013-03-10 09:01:00,
2013-03-10 00:11:00,32.0,30.0,-100.00,ESE,105,4.0,7.0,95,-99.99,,,-99.99,,2013-03-10 09:11:00,
2013-03-10 00:21:00,31.0,29.0,-100.00,ESE,115,5.0,11.0,92,-99.99,,,-99.99,,2013-03-10 09:21:00,
2013-03-10 00:32:00,31.0,29.0,-100.00,ESE,115,5.0,11.0,92,-99.99,,,-99.99,,2013-03-10 09:32:00,
2013-03-10 00:42:00,31.0,29.0,-100.00,ESE,115,5.0,11.0,92,-99.99,,,-99.99,,2013-03-10 09:42:00,
2013-03-10 00:52:00,31.0,29.0,-100.00,East,95,4.0,8.0,91,-99.99,,,-99.99,,2013-03-10 09:52:00,
2013-03-10 01:01:00,31.0,29.0,-100.00,East,95,4.0,8.0,91,-99.99,,,-99.99,,2013-03-10 10:01:00,
2013-03-10 01:11:00,31.0,29.0,-100.00,East,95,4.0,8.0,91,-99.99,,,-99.99,,2013-03-10 10:11:00,
2013-03-10 01:21:00,31.0,28.0,-100.00,East,95,6.0,10.0,90,-99.99,,,-99.99,,2013-03-10 10:21:00,
2013-03-10 01:32:00,31.0,28.0,-100.00,East,95,6.0,10.0,90,-99.99,,,-99.99,,2013-03-10 10:32:00,
2013-03-10 01:41:00,31.0,28.0,-100.00,East,95,6.0,10.0,90,-99.99,,,-99.99,,2013-03-10 10:41:00,
2013-03-10 01:51:00,31.0,28.0,-100.00,ESE,110,6.0,10.0,88,-99.99,,,-99.99,,2013-03-10 10:51:00,
2013-03-10 03:01:00,31.0,28.0,-100.00,ESE,110,6.0,10.0,88,-99.99,,,-99.99,,2013-03-10 11:01:00,
2013-03-10 03:11:00,31.0,28.0,-100.00,ESE,110,6.0,10.0,88,-99.99,,,-99.99,,2013-03-10 11:11:00,
2013-03-10 03:21:00,31.0,26.0,-100.00,ESE,115,5.0,11.0,82,-99.99,,,-99.99,,2013-03-10 11:21:00,
2013-03-10 03:32:00,31.0,26.0,-100.00,ESE,115,5.0,11.0,82,-99.99,,,-99.99,,2013-03-10 11:32:00,
2013-03-10 03:42:00,31.0,26.0,-100.00,ESE,115,5.0,11.0,82,-99.99,,,-99.99,,2013-03-10 11:42:00,
2013-03-10 03:52:00,30.0,25.0,-100.00,East,95,4.0,11.0,79,-99.99,,,-99.99,,2013-03-10 11:52:00,
2013-03-10 04:01:00,30.0,25.0,-100.00,East,95,4.0,11.0,79,-99.99,,,-99.99,,2013-03-10 12:01:00,
2013-03-10 04:11:00,30.0,25.0,-100.00,East,95,4.0,11.0,79,-99.99,,,-99.99,,2013-03-10 12:11:00,
2013-03-10 04:21:00,30.0,22.0,-100.00,SE,125,5.0,12.0,73,-99.99,,,-99.99,,2013-03-10 12:21:00,
2013-03-10 04:31:00,30.0,22.0,-100.00,SE,125,5.0,12.0,73,-99.99,,,-99.99,,2013-03-10 12:31:00,
2013-03-10 04:42:00,30.0,22.0,-100.00,SE,125,5.0,12.0,73,-99.99,,,-99.99,,2013-03-10 12:42:00,
2013-03-10 04:51:00,30.0,22.0,-100.00,East,95,5.0,11.0,72,-99.99,,,-99.99,,2013-03-10 12:51:00,
2013-03-10 05:01:00,30.0,22.0,-100.00,East,95,5.0,11.0,72,-99.99,,,-99.99,,2013-03-10 13:01:00,
2013-03-10 05:11:00,30.0,22.0,-100.00,East,95,5.0,11.0,72,-99.99,,,-99.99,,2013-03-10 13:11:00,
2013-03-10 05:21:00,30.0,21.0,-100.00,ESE,110,7.0,13.0,69,-99.99,,,-99.99,,2013-03-10 13:21:00,
2013-03-10 05:31:00,30.0,21.0,-100.00,ESE,110,7.0,13.0,69,-99.99,,,-99.99,,2013-03-10 13:31:00,
2013-03-10 05:41:00,30.0,21.0,-100.00,ESE,110,7.0,13.0,69,-99.99,,,-99.99,,2013-03-10 13:41:00,
2013-03-10 05:52:00,30.0,21.0,-100.00,East,100,7.0,15.0,69,-99.99,,,-99.99,,2013-03-10 13:52:00,
2013-03-10 06:01:00,30.0,21.0,-100.00,East,100,7.0,15.0,69,-99.99,,,-99.99,,2013-03-10 14:01:00,
2013-03-10 06:11:00,30.0,21.0,-100.00,East,100,7.0,15.0,69,-99.99,,,-99.99,,2013-03-10 14:11:00,
2013-03-10 06:21:00,31.0,22.0,-100.00,East,100,6.0,13.0,69,-99.99,,,-99.99,,2013-03-10 14:21:00,
2013-03-10 06:32:00,31.0,22.0,-100.00,East,100,6.0,13.0,69,-99.99,,,-99.99,,2013-03-10 14:32:00,
2013-03-10 06:41:00,31.0,22.0,-100.00,East,100,6.0,13.0,69,-99.99,,,-99.99,,2013-03-10 14:41:00,
2013-03-10 06:51:00,31.0,22.0,-100.00,East,85,4.0,9.0,70,-99.99,,,-99.99,,2013-03-10 14:51:00,
2013-03-10 07:01:00,31.0,22.0,-100.00,East,85,4.0,9.0,70,-99.99,,,-99.99,,2013-03-10 15:01:00,
2013-03-10 07:11:00,31.0,22.0,-100.00,East,85,4.0,9.0,70,-99.99,,,-99.99,,2013-03-10 15:11:00,
2013-03-10 07:21:00,32.0,24.0,-100.00,NNE,15,1.0,8.0,74,-99.99,,,-99.99,,2013-03-10 15:21:00,
2013-03-10 07:31:00,32.0,24.0,-100.00,NNE,15,1.0,8.0,74,-99.99,,,-99.99,,2013-03-10 15:31:00,
2013-03-10 07:42:00,32.0,24.0,-100.00,NNE,15,1.0,8.0,74,-99.99,,,-99.99,,2013-03-10 15:42:00,
2013-03-10 07:51:00,32.0,25.0,-100.00,East,95,4.0,7.0,75,-99.99,,,-99.99,,2013-03-10 15:51:00,
2013-03-10 08:01:00,32.0,25.0,-100.00,East,95,4.0,7.0,75,-99.99,,,-99.99,,2013-03-10 16:01:00,
2013-03-10 08:11:00,32.0,25.0,-100.00,East,95,4.0,7.0,75,-99.99,,,-99.99,,2013-03-10 16:11:00,
2013-03-10 08:21:00,32.0,26.0,-100.00,ESE,105,4.0,9.0,77,-99.99,,,-99.99,,2013-03-10 16:21:00,
2013-03-10 08:31:00,32.0,26.0,-100.00,ESE,105,4.0,9.0,77,-99.99,,,-99.99,,2013-03-10 16:31:00,
2013-03-10 08:41:00,32.0,26.0,-100.00,ESE,105,4.0,9.0,77,-99.99,,,-99.99,,2013-03-10 16:41:00,
2013-03-10 08:51:00,32.0,26.0,-100.00,ESE,120,6.0,10.0,77,-99.99,,,-99.99,,2013-03-10 16:51:00,
2013-03-10 09:01:00,32.0,26.0,-100.00,ESE,120,6.0,10.0,77,-99.99,,,-99.99,,2013-03-10 17:01:00,
2013-03-10 09:11:00,32.0,26.0,-100.00,ESE,120,6.0,10.0,77,-99.99,,,-99.99,,2013-03-10 17:11:00,
2013-03-10 09:21:00,32.0,26.0,-100.00,ESE,110,3.0,12.0,79,-99.99,,,-99.99,,2013-03-10 17:21:00,
2013-03-10 09:31:00,32.0,26.0,-100.00,ESE,110,3.0,12.0,79,-99.99,,,-99.99,,2013-03-10 17:31:00,
2013-03-10 09:41:00,32.0,26.0,-100.00,ESE,110,3.0,12.0,79,-99.99,,,-99.99,,2013-03-10 17:41:00,
2013-03-10 09:51:00,31.0,27.0,-100.00,ESE,105,3.0,9.0,87,-99.99,,,-99.99,,2013-03-10 17:51:00,
2013-03-10 10:01:00,31.0,27.0,-100.00,ESE,105,3.0,9.0,87,-99.99,,,-99.99,,2013-03-10 18:01:00,
2013-03-10 10:11:00,31.0,27.0,-100.00,ESE,105,3.0,9.0,87,-99.99,,,-99.99,,2013-03-10 18:11:00,
2013-03-10 10:21:00,30.0,28.0,-100.00,SE,130,4.0,7.0,92,-99.99,,,-99.99,,2013-03-10 18:21:00,
2013-03-10 10:31:00,30.0,28.0,-100.00,SE,130,4.0,7.0,92,-99.99,,,-99.99,,2013-03-10 18:31:00,
2013-03-10 10:41:00,30.0,28.0,-100.00,SE,130,4.0,7.0,92,-99.99,,,-99.99,,2013-03-10 18:41:00,
2013-03-10 10:52:00,30.0,29.0,-100.00,East,95,3.0,7.0,94,-99.99,,,-99.99,,2013-03-10 18:52:00,
2013-03-10 11:01:00,30.0,29.0,-100.00,East,95,3.0,7.0,94,-99.99,,,-99.99,,2013-03-10 19:01:00,
2013-03-10 11:11:00,30.0,29.0,-100.00,East,95,3.0,7.0,94,-99.99,,,-99.99,,2013-03-10 19:11:00,
2013-03-10 11:21:00,30.0,29.0,-100.00,East,80,4.0,9.0,95,-99.99,,,-99.99,,2013-03-10 19:21:00,
2013-03-10 11:31:00,30.0,29.0,-100.00,East,80,4.0,9.0,95,-99.99,,,-99.99,,2013-03-10 19:31:00,